Time;durP1;ratioP1;P1;durP2;ratioP2;P2;SDS_P1;SDS_P2;PMS_P1;PMS_P2;Temp;Humidity;BMP_temperature;BMP_pressure;BME280_temperature;BME280_humidity;BME280_pressure;Samples;Min_cycle;Max_cycle;Signal;HPM_P1;HPM_P2
2022/05/16 00:01:28;;;;;;;2.53;1.52;;;20.80;52.90;;;;;;10429474;28;20038;-60
2022/05/16 00:06:28;;;;;;;2.22;1.52;;;20.80;53.10;;;;;;10419699;28;20434;-60
2022/05/16 00:11:30;;;;;;;2.53;1.75;;;20.80;53.10;;;;;;10419503;28;20493;-60
2022/05/16 00:16:31;;;;;;;3.53;1.80;;;20.80;53.10;;;;;;10418858;28;20026;-60
2022/05/16 00:21:32;;;;;;;5.25;2.13;;;20.80;53.20;;;;;;10424287;28;20032;-61
2022/05/16 00:26:34;;;;;;;2.50;1.58;;;20.80;53.20;;;;;;10420131;28;20021;-60
2022/05/16 00:31:34;;;;;;;4.22;2.50;;;20.80;53.20;;;;;;10418276;28;20049;-60
2022/05/16 00:36:36;;;;;;;4.32;1.90;;;20.80;53.30;;;;;;10418085;28;20048;-61
2022/05/16 00:41:37;;;;;;;3.55;1.77;;;20.80;53.40;;;;;;10417087;28;20059;-60
2022/05/16 00:46:38;;;;;;;4.10;2.42;;;20.80;53.40;;;;;;10417969;28;20139;-60
2022/05/16 00:51:54;;;;;;;3.45;2.28;;;20.80;53.50;;;;;;10430924;28;20029;-61
2022/05/16 00:57:01;;;;;;;3.00;1.98;;;20.80;53.50;;;;;;10415993;28;20030;-60
2022/05/16 01:07:35;;;;;;;5.57;2.33;;;20.80;53.50;;;;;;10417693;28;20041;-61
2022/05/16 01:12:44;;;;;;;3.30;1.80;;;20.80;53.60;;;;;;10416544;28;20116;-61
2022/05/16 01:17:46;;;;;;;3.85;2.50;;;20.80;53.60;;;;;;10416548;28;20091;-60
2022/05/16 01:22:51;;;;;;;3.38;2.50;;;20.80;53.60;;;;;;10422535;28;20017;-61
2022/05/16 01:27:56;;;;;;;2.38;1.50;;;20.80;53.60;;;;;;10431008;28;20033;-61
2022/05/16 01:32:57;;;;;;;4.40;1.85;;;20.80;53.70;;;;;;10414600;28;20505;-60
2022/05/16 01:43:19;;;;;;;3.95;2.83;;;20.80;53.80;;;;;;10415617;28;20486;-60
2022/05/16 01:48:20;;;;;;;3.53;2.15;;;20.80;53.80;;;;;;10413571;28;20037;-61
2022/05/16 01:53:21;;;;;;;2.95;2.20;;;20.70;53.70;;;;;;10414074;28;20048;-61
2022/05/16 01:58:22;;;;;;;5.00;2.22;;;20.70;53.80;;;;;;10426437;28;20491;-60
2022/05/16 02:03:23;;;;;;;3.10;1.92;;;20.70;53.90;;;;;;10413972;28;20108;-61
2022/05/16 02:08:24;;;;;;;4.88;2.72;;;20.70;53.90;;;;;;10413612;28;20099;-60
2022/05/16 02:13:25;;;;;;;5.35;2.00;;;20.70;54.00;;;;;;10414484;28;20100;-60
2022/05/16 02:18:26;;;;;;;3.63;2.15;;;20.70;54.10;;;;;;10414247;28;20120;-61
2022/05/16 02:28:46;;;;;;;3.20;2.00;;;20.70;54.10;;;;;;10414624;28;20042;-62
2022/05/16 02:33:48;;;;;;;3.38;2.13;;;20.70;54.10;;;;;;10413568;28;20507;-60
2022/05/16 02:38:48;;;;;;;3.10;1.88;;;20.70;54.10;;;;;;10415806;28;20029;-60
2022/05/16 02:43:49;;;;;;;4.00;2.55;;;20.70;54.10;;;;;;10413785;28;20060;-61
2022/05/16 02:48:50;;;;;;;3.40;2.20;;;20.70;54.20;;;;;;10413289;28;20071;-61
2022/05/16 02:53:51;;;;;;;3.15;2.08;;;20.70;54.10;;;;;;10411879;28;20034;-61
2022/05/16 02:58:52;;;;;;;2.90;1.75;;;20.70;54.20;;;;;;10410942;28;20048;-61
2022/05/16 03:03:52;;;;;;;3.78;2.28;;;20.70;54.20;;;;;;10413232;28;20036;-60
2022/05/16 03:08:53;;;;;;;2.95;2.17;;;20.70;54.20;;;;;;10413136;28;20100;-61
2022/05/16 03:13:54;;;;;;;4.10;2.33;;;20.70;54.30;;;;;;10412876;28;20025;-60
2022/05/16 03:18:55;;;;;;;2.50;1.80;;;20.70;54.40;;;;;;10412395;28;20447;-61
2022/05/16 03:23:58;;;;;;;3.33;1.70;;;20.70;54.40;;;;;;10418844;28;20170;-61
2022/05/16 03:28:58;;;;;;;4.25;2.03;;;20.60;54.30;;;;;;10394316;28;20401;-61
2022/05/16 03:33:59;;;;;;;4.90;2.35;;;20.60;54.40;;;;;;10411634;28;20091;-60
2022/05/16 03:44:20;;;;;;;2.88;1.85;;;20.70;55.00;;;;;;10410743;28;20490;-61
2022/05/16 03:49:21;;;;;;;4.88;2.35;;;20.60;54.40;;;;;;10410656;28;20120;-60
2022/05/16 03:54:22;;;;;;;3.95;2.22;;;20.60;54.40;;;;;;10411539;28;20079;-60
2022/05/16 03:59:22;;;;;;;4.35;2.35;;;20.60;54.50;;;;;;10411993;28;20136;-61
2022/05/16 04:04:23;;;;;;;3.75;1.88;;;20.60;54.50;;;;;;10411696;28;20037;-60
2022/05/16 04:09:24;;;;;;;3.33;2.00;;;20.60;54.50;;;;;;10415389;28;20057;-60
2022/05/16 04:14:25;;;;;;;4.00;2.42;;;20.60;54.60;;;;;;10419199;28;20026;-60
2022/05/16 04:19:26;;;;;;;4.05;2.20;;;20.60;54.60;;;;;;10418708;28;20041;-61
2022/05/16 04:24:26;;;;;;;4.72;2.28;;;20.60;54.60;;;;;;10424944;28;20084;-61
2022/05/16 04:29:27;;;;;;;3.03;1.90;;;20.60;54.60;;;;;;10416968;28;20053;-61
2022/05/16 04:34:28;;;;;;;3.90;1.80;;;20.60;54.60;;;;;;10418428;28;20481;-60
2022/05/16 04:39:28;;;;;;;3.38;2.00;;;20.60;54.70;;;;;;10417974;28;20108;-60
2022/05/16 04:44:36;;;;;;;3.58;2.78;;;20.60;54.70;;;;;;10418410;28;20021;-61
2022/05/16 04:49:36;;;;;;;5.13;2.47;;;20.60;54.70;;;;;;10416510;28;20041;-61
2022/05/16 04:54:40;;;;;;;4.28;2.25;;;20.60;54.70;;;;;;10406899;28;20037;-59
2022/05/16 04:59:40;;;;;;;4.07;2.67;;;20.60;54.70;;;;;;10416027;28;20485;-59
2022/05/16 05:04:42;;;;;;;5.72;3.22;;;20.50;55.10;;;;;;10416788;28;20049;-58
2022/05/16 05:15:03;;;;;;;7.30;4.10;;;20.60;55.40;;;;;;10415661;28;20038;-59
2022/05/16 05:20:04;;;;;;;8.43;4.53;;;20.60;55.30;;;;;;10423799;28;20647;-61
2022/05/16 05:25:05;;;;;;;8.93;3.92;;;20.60;55.80;;;;;;10414844;28;20038;-61
2022/05/16 05:30:14;;;;;;;6.30;3.83;;;20.60;55.40;;;;;;10413485;28;20033;-57
2022/05/16 05:35:17;;;;;;;7.70;4.50;;;20.60;55.50;;;;;;10418698;28;20037;-59
2022/05/16 05:40:18;;;;;;;6.70;4.05;;;20.70;55.00;;;;;;10413795;28;20720;-59
2022/05/16 05:45:19;;;;;;;7.65;4.00;;;20.70;55.90;;;;;;10413698;28;20037;-58
2022/05/16 05:50:19;;;;;;;8.82;4.18;;;20.70;55.90;;;;;;10411464;28;20390;-59
2022/05/16 05:55:20;;;;;;;4.63;3.40;;;20.70;55.80;;;;;;10419193;28;20068;-60
2022/05/16 06:00:21;;;;;;;8.05;4.15;;;20.70;55.40;;;;;;10402275;28;20026;-60
2022/05/16 06:05:23;;;;;;;9.00;4.97;;;20.60;55.30;;;;;;10411566;28;20075;-59
2022/05/16 06:10:24;;;;;;;9.55;4.70;;;20.60;54.90;;;;;;10411733;28;20091;-59
2022/05/16 06:15:24;;;;;;;9.30;5.00;;;20.60;54.90;;;;;;10413430;28;20083;-59
2022/05/16 06:20:25;;;;;;;9.18;5.43;;;20.60;55.50;;;;;;10412902;28;20029;-59
2022/05/16 06:25:33;;;;;;;5.80;4.15;;;20.60;55.30;;;;;;10417041;28;20032;-59
2022/05/16 06:30:37;;;;;;;8.18;4.38;;;20.60;55.30;;;;;;10423636;28;20408;-59
2022/05/16 06:35:38;;;;;;;10.25;3.80;;;20.60;55.30;;;;;;10408623;28;20088;-58
2022/05/16 06:40:42;;;;;;;9.57;4.15;;;20.60;55.40;;;;;;10410556;28;20017;-58
2022/05/16 06:45:43;;;;;;;8.70;4.18;;;20.60;55.30;;;;;;10427087;28;20159;-59
2022/05/16 06:50:46;;;;;;;8.43;4.63;;;20.60;55.50;;;;;;10425396;28;20033;-58
2022/05/16 06:55:47;;;;;;;7.25;4.20;;;20.60;55.40;;;;;;10410196;28;20116;-59
2022/05/16 07:00:49;;;;;;;7.13;3.20;;;20.60;55.60;;;;;;10411936;28;20114;-58
2022/05/16 07:05:51;;;;;;;6.90;4.20;;;20.60;55.80;;;;;;10409074;28;20036;-58
2022/05/16 07:10:52;;;;;;;7.30;4.20;;;20.60;55.70;;;;;;10410877;28;20116;-59
2022/05/16 07:15:54;;;;;;;7.18;4.07;;;20.60;56.00;;;;;;10407446;28;20469;-59
2022/05/16 07:20:56;;;;;;;6.32;3.63;;;20.70;56.40;;;;;;10409171;28;20501;-59
2022/05/16 07:31:16;;;;;;;7.68;4.07;;;20.70;56.20;;;;;;10411718;28;20409;-58
2022/05/16 07:36:16;;;;;;;9.55;3.88;;;20.70;56.40;;;;;;10410391;28;20037;-58
2022/05/16 07:41:17;;;;;;;7.53;3.67;;;20.60;56.50;;;;;;10410738;28;20057;-59
2022/05/16 07:46:18;;;;;;;4.75;3.47;;;20.70;56.70;;;;;;10417575;28;20028;-58
2022/05/16 07:51:18;;;;;;;6.95;3.70;;;20.60;57.40;;;;;;10416144;28;20057;-58
2022/05/16 07:56:20;;;;;;;5.65;4.50;;;20.60;57.00;;;;;;10419642;28;20113;-58
2022/05/16 08:01:20;;;;;;;6.55;3.20;;;20.60;57.70;;;;;;10417189;28;20041;-58
2022/05/16 08:06:21;;;;;;;5.10;3.58;;;20.60;57.10;;;;;;10419222;28;20044;-58
2022/05/16 08:11:21;;;;;;;6.60;4.13;;;20.60;57.40;;;;;;10418478;28;20059;-58
2022/05/16 08:16:22;;;;;;;5.18;3.58;;;20.70;57.80;;;;;;10418044;28;20065;-58
2022/05/16 08:21:23;;;;;;;6.97;3.85;;;20.60;58.10;;;;;;10421418;28;20401;-58
2022/05/16 08:26:23;;;;;;;6.43;3.75;;;20.70;58.10;;;;;;10418897;28;20129;-59
2022/05/16 08:31:28;;;;;;;9.02;4.40;;;20.70;58.70;;;;;;10417982;28;20045;-58
2022/05/16 08:42:03;;;;;;;13.23;5.65;;;20.70;60.60;;;;;;10415242;28;20041;-58
2022/05/16 08:47:53;;;;;;;10.38;4.75;;;20.70;61.10;;;;;;10413517;28;20032;-58
2022/05/16 08:53:10;;;;;;;14.93;5.30;;;20.80;62.00;;;;;;10421341;28;20049;-65
2022/05/16 08:58:59;;;;;;;12.23;5.50;;;20.80;61.80;;;;;;10430787;28;20037;-65
2022/05/16 09:04:06;;;;;;;11.40;5.47;;;20.90;61.80;;;;;;10416971;28;20032;-65
2022/05/16 09:09:18;;;;;;;9.38;4.63;;;20.90;61.80;;;;;;10431772;28;20036;-67
2022/05/16 09:14:53;;;;;;;9.60;4.57;;;20.90;61.60;;;;;;10416733;28;20041;-62
2022/05/16 09:20:38;;;;;;;12.68;4.85;;;20.90;61.40;;;;;;10396034;28;20108;-66
2022/05/16 09:26:21;;;;;;;12.38;4.88;;;20.90;61.50;;;;;;10403076;28;20092;-66
2022/05/16 09:31:35;;;;;;;10.68;5.35;;;21.00;61.60;;;;;;10380690;28;20049;-65
2022/05/16 09:36:40;;;;;;;7.78;4.78;;;21.00;61.60;;;;;;10403938;28;20033;-67
2022/05/16 09:42:00;;;;;;;8.15;4.97;;;21.00;61.60;;;;;;10414080;28;20469;-65
2022/05/16 09:47:28;;;;;;;9.32;4.55;;;21.00;61.40;;;;;;10428059;28;20025;-67
2022/05/16 09:52:45;;;;;;;8.00;4.70;;;21.10;61.30;;;;;;10422912;28;20034;-68
2022/05/16 09:57:57;;;;;;;8.85;4.80;;;21.10;61.40;;;;;;10413817;28;20029;-68
2022/05/16 10:03:41;;;;;;;11.77;4.82;;;21.10;61.20;;;;;;10414612;28;20029;-65
2022/05/16 10:08:46;;;;;;;9.88;4.55;;;21.10;61.80;;;;;;10406363;28;20117;-66
2022/05/16 10:13:49;;;;;;;10.38;3.90;;;21.10;61.10;;;;;;10413380;28;20482;-67
2022/05/16 10:19:15;;;;;;;6.40;5.20;;;21.20;61.30;;;;;;10412496;28;20044;-66
2022/05/16 10:24:16;;;;;;;9.95;5.35;;;21.20;61.30;;;;;;10407106;28;20018;-66
2022/05/16 10:29:25;;;;;;;9.07;4.40;;;21.30;61.30;;;;;;10417376;28;20045;-67
2022/05/16 10:34:36;;;;;;;7.25;5.13;;;21.30;61.20;;;;;;10416317;28;20045;-66
2022/05/16 10:39:48;;;;;;;6.78;5.15;;;21.30;61.10;;;;;;10404666;28;20117;-67
2022/05/16 10:45:17;;;;;;;7.80;4.88;;;21.20;61.20;;;;;;10417508;28;20036;-67
2022/05/16 10:50:27;;;;;;;8.87;4.53;;;21.20;61.30;;;;;;10414917;28;20120;-67
2022/05/16 10:55:48;;;;;;;8.82;4.65;;;21.20;61.30;;;;;;10415428;28;20167;-66
2022/05/16 11:01:29;;;;;;;10.43;5.53;;;21.30;61.50;;;;;;10410581;28;20128;-64
2022/05/16 11:07:17;;;;;;;11.52;5.10;;;21.20;61.90;;;;;;10408863;28;20536;-64
2022/05/16 11:12:35;;;;;;;9.75;4.70;;;21.30;61.20;;;;;;10401266;28;20048;-67
2022/05/16 11:18:06;;;;;;;6.13;4.03;;;21.30;61.30;;;;;;10413568;28;20056;-66
2022/05/16 11:23:35;;;;;;;7.40;4.45;;;21.30;61.30;;;;;;10419269;28;20028;-67
2022/05/16 11:34:20;;;;;;;6.90;4.28;;;21.40;61.50;;;;;;10430904;28;20464;-65
2022/05/16 11:39:37;;;;;;;5.95;4.00;;;21.40;61.20;;;;;;10433027;28;20034;-63
2022/05/16 11:45:03;;;;;;;9.20;4.22;;;21.30;61.50;;;;;;10433009;28;20033;-63
2022/05/16 11:50:21;;;;;;;6.47;3.63;;;21.30;61.60;;;;;;10418783;28;20048;-63
2022/05/16 12:01:26;;;;;;;10.52;4.45;;;21.30;62.00;;;;;;10431131;28;20046;-64
2022/05/16 12:07:02;;;;;;;7.30;4.03;;;21.30;61.90;;;;;;10417853;28;20025;-61
2022/05/16 12:12:12;;;;;;;6.22;3.95;;;21.30;62.20;;;;;;10417779;28;20362;-64
2022/05/16 12:17:18;;;;;;;8.85;3.72;;;21.30;62.30;;;;;;10433032;28;20056;-63
2022/05/16 12:22:45;;;;;;;5.40;3.13;;;21.30;62.40;;;;;;10426777;28;20036;-60
2022/05/16 12:27:47;;;;;;;4.93;3.78;;;21.30;62.50;;;;;;10417490;28;20129;-61
2022/05/16 12:32:55;;;;;;;7.00;3.80;;;21.40;62.40;;;;;;10433552;28;20046;-62
2022/05/16 12:37:57;;;;;;;5.63;3.80;;;21.40;62.80;;;;;;10418396;28;20065;-62
2022/05/16 12:43:20;;;;;;;5.25;3.60;;;21.40;62.90;;;;;;10417835;28;20380;-63
2022/05/16 12:48:42;;;;;;;5.65;3.33;;;21.40;63.10;;;;;;10416571;28;20398;-63
2022/05/16 12:54:16;;;;;;;6.65;4.00;;;21.30;63.10;;;;;;10412651;28;20112;-61
2022/05/16 12:59:53;;;;;;;7.68;4.80;;;21.30;63.80;;;;;;10415974;28;20052;-61
2022/05/16 13:05:32;;;;;;;12.15;4.38;;;21.30;64.70;;;;;;10416241;28;20056;-61
2022/05/16 13:11:11;;;;;;;12.82;4.78;;;21.30;65.40;;;;;;10416013;28;20049;-61
2022/05/16 13:16:29;;;;;;;12.93;7.22;;;21.30;65.50;;;;;;10414683;28;20543;-61
2022/05/16 13:21:37;;;;;;;11.73;5.85;;;21.30;66.30;;;;;;10421199;28;20025;-62
2022/05/16 13:31:58;;;;;;;10.27;5.85;;;21.30;65.70;;;;;;10416481;28;20393;-63
2022/05/16 13:37:00;;;;;;;10.23;5.50;;;21.30;65.50;;;;;;10415832;28;20036;-62
2022/05/16 13:42:04;;;;;;;8.55;6.20;;;21.30;65.50;;;;;;10414464;28;20392;-61
2022/05/16 13:47:12;;;;;;;9.70;6.03;;;21.30;65.70;;;;;;10414284;28;20033;-63
2022/05/16 13:52:27;;;;;;;8.40;6.57;;;21.20;65.40;;;;;;10411315;28;20037;-62
2022/05/16 13:57:28;;;;;;;10.02;6.80;;;21.20;65.20;;;;;;10413925;28;20049;-60
2022/05/16 14:02:29;;;;;;;10.60;6.28;;;21.20;65.20;;;;;;10414860;28;20025;-62
2022/05/16 14:07:34;;;;;;;18.13;7.65;;;21.20;65.50;;;;;;10406776;28;20025;-63
2022/05/16 14:12:43;;;;;;;15.13;6.55;;;21.20;65.60;;;;;;10414353;28;20033;-61
2022/05/16 14:18:03;;;;;;;11.48;6.18;;;21.20;65.60;;;;;;10413091;28;20029;-62
2022/05/16 14:23:22;;;;;;;10.30;5.60;;;21.20;65.20;;;;;;10422176;28;20025;-60
2022/05/16 14:28:22;;;;;;;8.93;6.53;;;21.20;65.20;;;;;;10429242;28;20052;-62
2022/05/16 14:33:32;;;;;;;10.85;5.97;;;21.20;65.40;;;;;;10413081;28;20051;-62
2022/05/16 14:38:50;;;;;;;7.55;5.28;;;21.20;65.10;;;;;;10428638;28;20462;-59
2022/05/16 14:44:15;;;;;;;13.68;6.22;;;21.20;65.10;;;;;;10413075;28;20338;-65
2022/05/16 14:49:20;;;;;;;11.30;5.97;;;21.20;65.10;;;;;;10411810;28;20124;-60
2022/05/16 14:54:39;;;;;;;23.45;7.80;;;21.20;64.80;;;;;;10410805;28;20029;-63
2022/05/16 14:59:40;;;;;;;;;;;21.20;65.60;;;;;;10411398;28;20478;-62
2022/05/16 15:04:40;;;;;;;17.67;7.90;;;21.20;65.40;;;;;;10403046;28;19920;-58
2022/05/16 15:09:41;;;;;;;12.23;7.45;;;21.30;65.60;;;;;;10404310;28;20041;-58
2022/05/16 15:14:43;;;;;;;17.58;8.43;;;21.30;65.60;;;;;;10404775;28;20033;-57
2022/05/16 15:19:44;;;;;;;12.80;7.93;;;21.20;65.50;;;;;;10411616;28;20104;-58
2022/05/16 15:24:55;;;;;;;12.93;8.30;;;21.30;65.50;;;;;;10432640;28;20113;-58
2022/05/16 15:29:57;;;;;;;18.80;7.50;;;21.30;65.80;;;;;;10424211;28;20068;-58
2022/05/16 15:34:58;;;;;;;15.55;6.70;;;21.30;65.50;;;;;;10410613;28;20049;-56
2022/05/16 15:40:00;;;;;;;11.15;6.95;;;21.40;66.00;;;;;;10408984;28;20052;-58
2022/05/16 15:45:02;;;;;;;11.45;6.75;;;21.50;65.30;;;;;;10410389;28;20090;-58
2022/05/16 15:50:03;;;;;;;13.70;6.05;;;21.60;64.70;;;;;;10404513;28;20095;-62
2022/05/16 15:55:07;;;;;;;11.05;6.28;;;21.70;65.10;;;;;;10400912;28;20481;-60
2022/05/16 16:00:12;;;;;;;13.05;5.78;;;21.80;64.90;;;;;;10407426;28;20040;-60
2022/05/16 16:10:33;;;;;;;11.20;5.07;;;22.00;65.50;;;;;;10418829;28;20068;-60
2022/05/16 16:15:35;;;;;;;10.18;4.82;;;22.10;64.50;;;;;;10417386;28;20116;-60
2022/05/16 16:20:37;;;;;;;8.75;4.43;;;21.90;64.50;;;;;;10418521;28;20034;-58
2022/05/16 16:25:39;;;;;;;8.35;4.78;;;21.80;64.30;;;;;;10425232;28;20030;-59
2022/05/16 16:30:47;;;;;;;9.63;3.30;;;21.70;64.20;;;;;;10409834;28;20072;-62
2022/05/16 16:35:49;;;;;;;11.70;3.58;;;21.60;64.00;;;;;;10417262;28;20504;-61
2022/05/16 16:40:56;;;;;;;7.82;3.40;;;21.60;64.00;;;;;;10418171;28;20382;-64
2022/05/16 16:46:01;;;;;;;7.43;3.50;;;21.60;63.90;;;;;;10416195;28;20052;-64
2022/05/16 17:02:18;;;;;;;4.93;2.85;;;21.50;63.50;;;;;;10407809;28;20084;-59
2022/05/16 17:07:21;;;;;;;4.80;2.70;;;21.50;63.50;;;;;;10416201;28;20037;-57
2022/05/16 17:12:22;;;;;;;6.82;2.90;;;21.50;63.50;;;;;;10417255;28;20466;-61
2022/05/16 17:17:23;;;;;;;6.88;3.50;;;21.50;63.50;;;;;;10415244;28;20042;-61
2022/05/16 17:22:25;;;;;;;5.30;2.60;;;21.50;63.50;;;;;;10440377;28;20024;-61
2022/05/16 17:27:25;;;;;;;9.00;2.63;;;21.50;63.50;;;;;;10414640;28;20120;-59
2022/05/16 17:32:26;;;;;;;17.20;3.60;;;21.50;63.40;;;;;;10422298;28;20438;-62
2022/05/16 17:37:27;;;;;;;10.13;2.80;;;21.40;63.10;;;;;;10414417;28;20043;-62
2022/05/16 17:42:28;;;;;;;6.88;2.75;;;21.50;62.90;;;;;;10415792;28;20498;-63
2022/05/16 17:47:28;;;;;;;5.38;2.40;;;21.40;62.90;;;;;;10425231;28;20033;-64
2022/05/16 17:52:29;;;;;;;5.20;2.50;;;21.50;62.70;;;;;;10412349;28;20072;-61
2022/05/16 17:57:31;;;;;;;10.32;2.67;;;21.40;62.60;;;;;;10411277;28;20152;-63
2022/05/16 18:02:37;;;;;;;4.97;2.53;;;21.40;62.50;;;;;;10415081;28;20092;-63
2022/05/16 18:07:39;;;;;;;3.88;2.63;;;21.40;62.60;;;;;;10413264;28;20032;-62
2022/05/16 18:12:42;;;;;;;7.20;2.10;;;21.40;62.50;;;;;;10412760;28;20029;-62
2022/05/16 18:17:43;;;;;;;6.65;2.53;;;21.40;62.40;;;;;;10417605;28;20401;-63
2022/05/16 18:22:50;;;;;;;7.00;2.10;;;21.40;62.30;;;;;;10421863;28;20026;-63
2022/05/16 18:27:52;;;;;;;4.35;2.70;;;21.40;62.20;;;;;;10428674;28;20032;-63
2022/05/16 18:32:54;;;;;;;4.55;2.15;;;21.40;62.20;;;;;;10411606;28;20049;-63
2022/05/16 18:37:55;;;;;;;5.20;1.70;;;21.40;61.90;;;;;;10400836;28;20037;-60
2022/05/16 18:53:38;;;;;;;6.10;2.50;;;21.30;61.90;;;;;;10406019;28;20038;-62
2022/05/16 18:58:39;;;;;;;5.68;2.47;;;21.30;61.90;;;;;;10424343;28;20033;-62
2022/05/16 19:03:40;;;;;;;4.40;1.80;;;21.30;61.80;;;;;;10406625;28;20033;-63
2022/05/16 19:08:43;;;;;;;5.22;1.70;;;21.30;61.80;;;;;;10412574;28;20021;-62
2022/05/16 19:13:44;;;;;;;4.72;1.80;;;21.30;61.70;;;;;;10426327;28;20033;-63
2022/05/16 19:18:45;;;;;;;5.07;2.30;;;21.30;61.70;;;;;;10410492;28;20461;-65
2022/05/16 19:23:46;;;;;;;3.92;1.60;;;21.30;61.50;;;;;;10416513;28;20032;-66
2022/05/16 19:34:06;;;;;;;4.28;1.85;;;21.20;61.30;;;;;;10423061;28;20049;-66
2022/05/16 19:39:07;;;;;;;5.07;1.65;;;21.20;61.30;;;;;;10412594;28;20497;-67
2022/05/16 19:44:07;;;;;;;7.32;3.00;;;21.20;61.10;;;;;;10418824;28;20064;-66
2022/05/16 19:49:09;;;;;;;7.82;2.03;;;21.20;60.90;;;;;;10418555;28;20029;-65
2022/05/16 19:54:11;;;;;;;4.32;2.28;;;21.20;61.60;;;;;;10428744;28;20052;-62
2022/05/16 19:59:13;;;;;;;6.82;2.20;;;21.20;61.30;;;;;;10409972;28;20084;-64
2022/05/16 20:04:14;;;;;;;3.35;1.77;;;21.20;61.20;;;;;;10417371;28;20025;-66
2022/05/16 20:09:17;;;;;;;3.70;1.70;;;21.20;61.00;;;;;;10412366;28;20037;-65
2022/05/16 20:14:19;;;;;;;3.97;1.75;;;21.10;61.10;;;;;;10415730;28;20472;-64
2022/05/16 20:19:20;;;;;;;4.25;1.60;;;21.20;61.20;;;;;;10411534;28;20042;-65
2022/05/16 20:29:39;;;;;;;4.28;1.52;;;21.20;61.20;;;;;;10418316;28;20041;-65
2022/05/16 20:34:40;;;;;;;3.50;1.75;;;21.10;61.20;;;;;;10416702;28;20124;-66
2022/05/16 20:39:41;;;;;;;4.72;1.70;;;21.10;61.20;;;;;;10416960;28;20112;-64
2022/05/16 20:44:41;;;;;;;3.95;1.83;;;21.10;61.30;;;;;;10416945;28;20057;-65
2022/05/16 20:49:42;;;;;;;3.53;1.75;;;21.10;61.20;;;;;;10416777;28;20120;-65
2022/05/16 20:54:43;;;;;;;4.82;2.00;;;21.10;61.30;;;;;;10417828;28;20138;-65
2022/05/16 20:59:44;;;;;;;5.60;1.80;;;21.10;61.30;;;;;;10418023;28;20603;-65
2022/05/16 21:04:44;;;;;;;2.15;1.35;;;21.10;61.30;;;;;;10416443;28;20090;-64
2022/05/16 21:09:45;;;;;;;3.10;1.45;;;21.10;61.30;;;;;;10416509;28;20033;-64
2022/05/16 21:14:46;;;;;;;2.58;1.52;;;21.10;61.30;;;;;;10416900;28;20433;-65
2022/05/16 21:19:46;;;;;;;2.88;1.67;;;21.10;61.30;;;;;;10432528;28;20052;-65
2022/05/16 21:24:47;;;;;;;2.53;1.42;;;21.00;61.20;;;;;;10415032;28;20604;-64
2022/05/16 21:29:48;;;;;;;4.13;1.52;;;21.10;61.30;;;;;;10415635;28;20547;-64
2022/05/16 21:34:48;;;;;;;4.55;1.80;;;21.00;61.30;;;;;;10414765;28;20059;-65
2022/05/16 21:39:52;;;;;;;3.72;1.23;;;21.00;61.30;;;;;;10414842;28;20063;-64
2022/05/16 21:50:14;;;;;;;3.45;1.55;;;21.00;61.30;;;;;;10416632;28;20514;-65
2022/05/16 21:55:15;;;;;;;5.32;1.55;;;21.00;61.40;;;;;;10415425;28;20038;-65
2022/05/16 22:00:25;;;;;;;2.85;1.60;;;21.00;61.40;;;;;;10414336;28;20105;-65
2022/05/16 22:05:30;;;;;;;2.97;1.70;;;21.00;61.40;;;;;;10414497;28;20037;-65
2022/05/16 22:10:30;;;;;;;4.13;1.70;;;21.00;61.40;;;;;;10387374;28;20037;-65
2022/05/16 22:15:31;;;;;;;2.85;1.45;;;21.00;61.40;;;;;;10421197;28;20068;-64
2022/05/16 22:20:33;;;;;;;3.28;1.85;;;21.00;61.40;;;;;;10413471;28;20025;-65
2022/05/16 22:25:34;;;;;;;3.80;1.23;;;21.00;61.40;;;;;;10413868;28;20033;-65
2022/05/16 22:30:36;;;;;;;3.60;2.08;;;21.00;61.40;;;;;;10429925;28;20033;-65
2022/05/16 22:35:37;;;;;;;4.53;1.35;;;21.00;61.40;;;;;;10428312;28;20049;-65
2022/05/16 22:40:39;;;;;;;2.38;1.30;;;21.00;61.40;;;;;;10414036;28;20039;-65
2022/05/16 22:45:39;;;;;;;3.80;2.00;;;20.90;61.40;;;;;;10412081;28;20401;-65
2022/05/16 22:50:42;;;;;;;3.17;1.77;;;20.90;61.30;;;;;;10429105;28;20054;-65
2022/05/16 22:55:54;;;;;;;5.00;1.55;;;20.90;61.30;;;;;;10398282;28;20048;-65
2022/05/16 23:00:55;;;;;;;2.88;1.33;;;20.90;61.40;;;;;;10428279;28;20038;-65
2022/05/16 23:06:12;;;;;;;3.10;1.25;;;20.90;61.30;;;;;;10402625;28;20036;-65
2022/05/16 23:11:13;;;;;;;2.33;1.20;;;20.90;61.40;;;;;;10411950;28;20403;-65
2022/05/16 23:16:14;;;;;;;3.20;1.40;;;20.90;61.40;;;;;;10410989;28;20068;-65
2022/05/16 23:21:15;;;;;;;2.60;1.58;;;20.90;61.40;;;;;;10411994;28;20025;-64
2022/05/16 23:26:16;;;;;;;3.35;1.48;;;20.90;61.40;;;;;;10411928;28;20537;-65
2022/05/16 23:31:16;;;;;;;2.65;1.70;;;20.90;61.50;;;;;;10411398;28;20505;-65
2022/05/16 23:36:19;;;;;;;3.78;1.88;;;20.90;61.50;;;;;;10428133;28;20441;-65
2022/05/16 23:41:20;;;;;;;3.65;1.85;;;20.90;61.40;;;;;;10427343;28;20025;-64
2022/05/16 23:46:21;;;;;;;3.42;1.85;;;20.90;61.50;;;;;;10412352;28;20117;-65
2022/05/16 23:51:22;;;;;;;3.22;1.48;;;20.90;61.40;;;;;;10410982;28;20084;-65
2022/05/16 23:56:23;;;;;;;2.97;1.48;;;20.80;61.30;;;;;;10411117;28;20017;-64
